Time;durP1;ratioP1;P1;durP2;ratioP2;P2;SDS_P1;SDS_P2;PMS_P1;PMS_P2;Temp;Humidity;BMP_temperature;BMP_pressure;BME280_temperature;BME280_humidity;BME280_pressure;Samples;Min_cycle;Max_cycle;Signal;HPM_P1;HPM_P2
2022/06/21 00:01:06;;;;;;;14.63;3.10;;;;;;;;;;5054921;28;20029;-70
2022/06/21 00:03:32;;;;;;;23.27;3.65;;;;;;;;;;5054811;28;20024;-72
2022/06/21 00:05:58;;;;;;;18.95;3.72;;;;;;;;;;5054586;28;20025;-71
2022/06/21 00:08:29;;;;;;;21.13;4.13;;;;;;;;;;5054636;28;20048;-72
2022/06/21 00:10:56;;;;;;;20.67;3.80;;;;;;;;;;5054680;28;20536;-71
2022/06/21 00:13:23;;;;;;;27.27;4.20;;;;;;;;;;5054427;28;20028;-72
2022/06/21 00:15:51;;;;;;;21.63;3.83;;;;;;;;;;5054189;28;20036;-71
2022/06/21 00:18:19;;;;;;;26.38;4.30;;;;;;;;;;5054240;28;20541;-71
2022/06/21 00:20:46;;;;;;;20.67;3.95;;;;;;;;;;5054295;28;20388;-70
2022/06/21 00:23:25;;;;;;;17.00;3.97;;;;;;;;;;5054301;28;20093;-70
2022/06/21 00:25:52;;;;;;;22.77;4.07;;;;;;;;;;5054103;28;20051;-71
2022/06/21 00:28:18;;;;;;;27.67;4.50;;;;;;;;;;5054268;28;20025;-72
2022/06/21 00:30:46;;;;;;;23.55;4.65;;;;;;;;;;5036310;28;20035;-71
2022/06/21 00:33:13;;;;;;;21.38;4.75;;;;;;;;;;5054058;28;20028;-70
2022/06/21 00:35:41;;;;;;;27.15;4.63;;;;;;;;;;5053948;28;20028;-71
2022/06/21 00:38:09;;;;;;;26.05;4.30;;;;;;;;;;5036199;28;20031;-71
2022/06/21 00:40:36;;;;;;;28.65;5.10;;;;;;;;;;5054093;28;20017;-71
2022/06/21 00:43:19;;;;;;;23.88;4.28;;;;;;;;;;5053939;28;20469;-71
2022/06/21 00:45:46;;;;;;;24.15;4.05;;;;;;;;;;5053881;28;20047;-71
2022/06/21 00:48:16;;;;;;;27.30;5.57;;;;;;;;;;5054022;28;20094;-71
2022/06/21 00:50:48;;;;;;;22.92;4.38;;;;;;;;;;5059825;28;20259;-72
2022/06/21 00:53:19;;;;;;;26.83;4.82;;;;;;;;;;5054258;28;20025;-71
2022/06/21 00:55:51;;;;;;;23.85;5.07;;;;;;;;;;5053498;28;20390;-70
2022/06/21 00:58:18;;;;;;;22.65;4.28;;;;;;;;;;5053857;28;20082;-71
2022/06/21 01:00:50;;;;;;;27.35;4.60;;;;;;;;;;5053697;28;20033;-70
2022/06/21 01:03:19;;;;;;;30.35;5.30;;;;;;;;;;5053501;28;20021;-71
2022/06/21 01:05:54;;;;;;;28.58;4.57;;;;;;;;;;5053231;28;20397;-70
2022/06/21 01:08:22;;;;;;;25.83;4.93;;;;;;;;;;5053329;28;20025;-73
2022/06/21 01:10:49;;;;;;;28.80;5.15;;;;;;;;;;5051031;28;20115;-71
2022/06/21 01:13:16;;;;;;;29.15;5.72;;;;;;;;;;5053173;28;20036;-71
2022/06/21 01:15:44;;;;;;;36.20;5.20;;;;;;;;;;5050694;28;20394;-71
2022/06/21 01:18:11;;;;;;;34.90;5.53;;;;;;;;;;5053051;28;20056;-71
2022/06/21 01:20:43;;;;;;;26.70;4.47;;;;;;;;;;5053730;28;20057;-71
2022/06/21 01:23:29;;;;;;;28.25;4.55;;;;;;;;;;5053225;28;20041;-72
2022/06/21 01:26:13;;;;;;;31.63;5.18;;;;;;;;;;5052452;28;20033;-70
2022/06/21 01:28:39;;;;;;;41.90;5.43;;;;;;;;;;5052336;28;20036;-70
2022/06/21 01:31:06;;;;;;;30.05;5.57;;;;;;;;;;5052620;28;20036;-71
2022/06/21 01:33:38;;;;;;;35.70;6.15;;;;;;;;;;5052591;28;20025;-71
2022/06/21 01:36:10;;;;;;;35.78;5.40;;;;;;;;;;5052254;28;20056;-70
2022/06/21 01:38:41;;;;;;;36.70;5.22;;;;;;;;;;5052357;28;20028;-70
2022/06/21 01:41:10;;;;;;;37.45;6.32;;;;;;;;;;5052448;28;20482;-70
2022/06/21 01:43:38;;;;;;;28.83;6.25;;;;;;;;;;5052309;28;20021;-71
2022/06/21 01:46:06;;;;;;;25.25;5.15;;;;;;;;;;5052499;28;20028;-71
2022/06/21 01:48:35;;;;;;;38.50;5.82;;;;;;;;;;5052522;28;20116;-71
2022/06/21 01:51:07;;;;;;;33.17;5.40;;;;;;;;;;5052475;28;20036;-71
2022/06/21 01:53:33;;;;;;;37.80;6.32;;;;;;;;;;5052701;28;20123;-71
2022/06/21 01:56:01;;;;;;;28.25;4.95;;;;;;;;;;5051917;28;20104;-71
2022/06/21 01:58:28;;;;;;;36.17;7.38;;;;;;;;;;5052325;28;20054;-70
2022/06/21 02:00:57;;;;;;;34.92;5.18;;;;;;;;;;5052220;28;20028;-70
2022/06/21 02:03:26;;;;;;;28.98;5.45;;;;;;;;;;5051432;28;20100;-71
2022/06/21 02:05:55;;;;;;;32.88;5.65;;;;;;;;;;5051906;28;20466;-72
2022/06/21 02:08:24;;;;;;;36.83;5.85;;;;;;;;;;5052201;28;20028;-70
2022/06/21 02:10:59;;;;;;;33.05;5.15;;;;;;;;;;5051974;28;20029;-71
2022/06/21 02:13:32;;;;;;;32.40;5.45;;;;;;;;;;5052036;28;20025;-71
2022/06/21 02:16:01;;;;;;;35.95;5.30;;;;;;;;;;5051477;28;20039;-71
2022/06/21 02:18:29;;;;;;;32.15;6.05;;;;;;;;;;5052381;28;20065;-71
2022/06/21 02:21:01;;;;;;;36.20;5.53;;;;;;;;;;5051922;28;20035;-71
2022/06/21 02:23:27;;;;;;;32.20;5.47;;;;;;;;;;5051950;28;20044;-71
2022/06/21 02:25:54;;;;;;;35.20;6.03;;;;;;;;;;5051157;28;20079;-71
2022/06/21 02:28:20;;;;;;;31.85;5.30;;;;;;;;;;5051672;28;20029;-71
2022/06/21 02:30:48;;;;;;;32.40;5.60;;;;;;;;;;5051898;28;20029;-67
2022/06/21 02:33:18;;;;;;;35.25;6.20;;;;;;;;;;5051661;28;20029;-71
2022/06/21 02:35:47;;;;;;;40.75;5.60;;;;;;;;;;5056734;28;20035;-71
2022/06/21 02:38:21;;;;;;;31.08;5.68;;;;;;;;;;5051546;28;20111;-71
2022/06/21 02:40:47;;;;;;;;;;;;;;;;;;5052343;28;20101;-71
2022/06/21 02:43:22;;;;;;;27.92;5.50;;;;;;;;;;5051640;28;19943;-70
2022/06/21 02:45:51;;;;;;;36.28;5.97;;;;;;;;;;5050932;28;20021;-71
2022/06/21 02:48:20;;;;;;;34.85;5.78;;;;;;;;;;5051493;28;20029;-70
2022/06/21 02:50:49;;;;;;;25.38;5.22;;;;;;;;;;5051621;28;20025;-70
2022/06/21 02:53:35;;;;;;;34.30;6.40;;;;;;;;;;5051749;28;20457;-71
2022/06/21 02:56:07;;;;;;;36.53;5.63;;;;;;;;;;5050867;28;20098;-71
2022/06/21 02:58:37;;;;;;;31.50;5.53;;;;;;;;;;5050625;28;20066;-73
2022/06/21 03:01:04;;;;;;;29.45;5.50;;;;;;;;;;5051119;28;20549;-71
2022/06/21 03:03:31;;;;;;;20.50;4.75;;;;;;;;;;5051624;28;20029;-70
2022/06/21 03:05:59;;;;;;;39.00;5.40;;;;;;;;;;5053896;28;20544;-69
2022/06/21 03:08:26;;;;;;;35.78;5.57;;;;;;;;;;5034282;28;20498;-70
2022/06/21 03:10:52;;;;;;;25.65;5.00;;;;;;;;;;5033920;28;20025;-70
2022/06/21 03:13:35;;;;;;;26.85;5.03;;;;;;;;;;5051187;28;20095;-71
2022/06/21 03:16:07;;;;;;;36.75;5.50;;;;;;;;;;5055219;28;20406;-70
2022/06/21 03:18:37;;;;;;;31.30;5.13;;;;;;;;;;5055649;28;20025;-70
2022/06/21 03:21:04;;;;;;;35.47;5.13;;;;;;;;;;5055432;28;20096;-70
2022/06/21 03:23:30;;;;;;;26.08;5.80;;;;;;;;;;5055242;28;20025;-71
2022/06/21 03:26:01;;;;;;;26.00;5.65;;;;;;;;;;5055174;28;20025;-71
2022/06/21 03:28:41;;;;;;;28.25;4.72;;;;;;;;;;5055334;28;20021;-71
2022/06/21 03:31:09;;;;;;;38.95;5.72;;;;;;;;;;5055266;28;20039;-70
2022/06/21 03:33:37;;;;;;;30.27;5.38;;;;;;;;;;5055280;28;20079;-70
2022/06/21 03:36:05;;;;;;;36.70;5.90;;;;;;;;;;5037082;28;20035;-71
2022/06/21 03:38:31;;;;;;;29.90;5.15;;;;;;;;;;5055215;28;20482;-71
2022/06/21 03:43:42;;;;;;;;;;;;;;;;;;5055903;28;20451;-71
2022/06/21 03:46:11;;;;;;;28.73;5.47;;;;;;;;;;5055263;28;19909;-71
2022/06/21 03:48:42;;;;;;;25.67;5.03;;;;;;;;;;5054836;28;20034;-73
2022/06/21 03:51:19;;;;;;;23.48;4.95;;;;;;;;;;5054766;28;20040;-72
2022/06/21 03:53:48;;;;;;;33.88;5.72;;;;;;;;;;5057437;28;20464;-71
2022/06/21 03:56:20;;;;;;;28.00;4.93;;;;;;;;;;5057042;28;20086;-71
2022/06/21 03:58:49;;;;;;;24.08;4.82;;;;;;;;;;5055121;28;20033;-72
2022/06/21 04:01:22;;;;;;;29.27;5.07;;;;;;;;;;5055179;28;20041;-73
2022/06/21 04:03:48;;;;;;;30.05;4.80;;;;;;;;;;5054644;28;20024;-73
2022/06/21 04:06:14;;;;;;;29.63;5.32;;;;;;;;;;5054256;28;20374;-73
2022/06/21 04:08:44;;;;;;;32.25;5.55;;;;;;;;;;5056806;28;20029;-72
2022/06/21 04:11:14;;;;;;;32.55;4.72;;;;;;;;;;5056884;28;20029;-73
2022/06/21 04:13:47;;;;;;;27.08;4.10;;;;;;;;;;5055237;28;20482;-71
2022/06/21 04:16:22;;;;;;;28.20;4.40;;;;;;;;;;5056191;28;20028;-72
2022/06/21 04:18:56;;;;;;;22.10;4.18;;;;;;;;;;5054323;28;20367;-71
2022/06/21 04:21:31;;;;;;;32.08;4.78;;;;;;;;;;5054271;28;20032;-71
2022/06/21 04:24:00;;;;;;;21.83;4.20;;;;;;;;;;5054372;28;20037;-71
2022/06/21 04:26:26;;;;;;;20.08;4.72;;;;;;;;;;5053303;28;20474;-71
2022/06/21 04:28:58;;;;;;;20.50;3.38;;;;;;;;;;5054256;28;20037;-70
2022/06/21 04:31:33;;;;;;;21.60;4.05;;;;;;;;;;5054147;28;20108;-69
2022/06/21 04:33:59;;;;;;;;;;;;;;;;;;5054583;28;20021;-70
2022/06/21 04:36:35;;;;;;;27.98;4.47;;;;;;;;;;5054125;28;19999;-75
2022/06/21 04:39:05;;;;;;;21.00;4.28;;;;;;;;;;5054402;28;20395;-71
2022/06/21 04:41:49;;;;;;;22.25;4.75;;;;;;;;;;5055310;28;20063;-72
2022/06/21 04:44:15;;;;;;;22.90;4.13;;;;;;;;;;5053978;28;20075;-71
2022/06/21 04:46:51;;;;;;;25.30;4.22;;;;;;;;;;5056427;28;20268;-71
2022/06/21 04:49:20;;;;;;;28.33;4.45;;;;;;;;;;5059003;28;20036;-71
2022/06/21 04:52:21;;;;;;;17.70;3.75;;;;;;;;;;5059905;28;20100;-70
2022/06/21 04:54:47;;;;;;;30.48;5.07;;;;;;;;;;4979199;28;20039;-70
2022/06/21 04:57:18;;;;;;;25.38;4.28;;;;;;;;;;5040698;28;20052;-71
2022/06/21 04:59:46;;;;;;;26.38;5.13;;;;;;;;;;5057490;28;20025;-71
2022/06/21 05:02:20;;;;;;;24.70;4.50;;;;;;;;;;5058220;28;20021;-72
2022/06/21 05:04:48;;;;;;;25.20;4.85;;;;;;;;;;5040830;28;20373;-72
2022/06/21 05:07:18;;;;;;;19.15;4.13;;;;;;;;;;5057339;28;20100;-72
2022/06/21 05:09:44;;;;;;;26.25;4.35;;;;;;;;;;5055956;28;20470;-71
2022/06/21 05:12:24;;;;;;;29.50;4.43;;;;;;;;;;5055686;28;20080;-71
2022/06/21 05:14:52;;;;;;;25.85;4.63;;;;;;;;;;5055023;28;20082;-71
2022/06/21 05:17:19;;;;;;;24.98;4.00;;;;;;;;;;5055194;28;20029;-72
2022/06/21 05:19:51;;;;;;;22.08;3.53;;;;;;;;;;5056006;28;20437;-72
2022/06/21 05:22:16;;;;;;;24.13;3.55;;;;;;;;;;5036505;28;20406;-71
2022/06/21 05:24:43;;;;;;;26.48;3.17;;;;;;;;;;5058509;28;20039;-71
2022/06/21 05:27:17;;;;;;;26.33;3.88;;;;;;;;;;5062537;28;20055;-73
2022/06/21 05:29:58;;;;;;;26.35;3.88;;;;;;;;;;5066153;28;20055;-72
2022/06/21 05:32:30;;;;;;;31.58;4.13;;;;;;;;;;5061001;28;20025;-71
2022/06/21 05:34:58;;;;;;;20.83;3.38;;;;;;;;;;5043659;28;20036;-71
2022/06/21 05:37:24;;;;;;;20.90;3.63;;;;;;;;;;5059991;28;20021;-70
2022/06/21 05:39:51;;;;;;;25.08;4.03;;;;;;;;;;5067678;28;20063;-70
2022/06/21 05:42:19;;;;;;;24.70;3.22;;;;;;;;;;5064251;28;20053;-71
2022/06/21 05:44:53;;;;;;;31.20;3.63;;;;;;;;;;5052885;28;20033;-72
2022/06/21 05:47:28;;;;;;;29.55;3.95;;;;;;;;;;5035158;28;20112;-72
2022/06/21 05:49:56;;;;;;;41.40;13.57;;;;;;;;;;5054638;28;20040;-76
2022/06/21 05:52:25;;;;;;;23.77;3.85;;;;;;;;;;5040483;28;20108;-72
2022/06/21 05:55:00;;;;;;;24.58;3.67;;;;;;;;;;5052865;28;20021;-73
2022/06/21 05:57:33;;;;;;;23.75;3.22;;;;;;;;;;5052495;28;20071;-73
2022/06/21 06:00:00;;;;;;;30.73;4.68;;;;;;;;;;5052648;28;20112;-71
2022/06/21 06:02:32;;;;;;;23.15;3.45;;;;;;;;;;5052535;28;20434;-71
2022/06/21 06:05:01;;;;;;;23.23;4.10;;;;;;;;;;5052397;28;20024;-71
2022/06/21 06:07:28;;;;;;;24.65;3.28;;;;;;;;;;5052060;28;20089;-71
2022/06/21 06:09:56;;;;;;;29.95;4.55;;;;;;;;;;5052943;28;20025;-71
2022/06/21 06:12:28;;;;;;;22.30;4.07;;;;;;;;;;5052736;28;20029;-72
2022/06/21 06:15:14;;;;;;;28.35;4.28;;;;;;;;;;5052220;28;20068;-70
2022/06/21 06:17:48;;;;;;;22.73;3.38;;;;;;;;;;5051974;28;20028;-72
2022/06/21 06:20:37;;;;;;;24.92;4.25;;;;;;;;;;5052170;28;20028;-71
2022/06/21 06:23:26;;;;;;;26.33;3.25;;;;;;;;;;5063166;23;20053;-73
2022/06/21 06:25:59;;;;;;;25.02;3.58;;;;;;;;;;5052652;28;20026;-75
2022/06/21 06:28:40;;;;;;;31.50;3.97;;;;;;;;;;5052805;28;20028;-73
2022/06/21 06:31:18;;;;;;;18.33;3.70;;;;;;;;;;5053089;28;20098;-73
2022/06/21 06:33:52;;;;;;;32.33;4.00;;;;;;;;;;5055217;28;20025;-73
2022/06/21 06:36:20;;;;;;;30.80;4.13;;;;;;;;;;5057068;28;20021;-74
2022/06/21 06:38:46;;;;;;;22.83;3.20;;;;;;;;;;5053148;28;20036;-74
2022/06/21 06:41:15;;;;;;;22.52;3.17;;;;;;;;;;5053423;28;20024;-73
2022/06/21 06:43:47;;;;;;;20.08;3.78;;;;;;;;;;5053238;28;20052;-75
2022/06/21 06:46:18;;;;;;;19.50;3.20;;;;;;;;;;5052531;28;20044;-74
2022/06/21 06:48:45;;;;;;;24.48;4.18;;;;;;;;;;5054102;28;20025;-75
2022/06/21 06:51:14;;;;;;;23.30;3.72;;;;;;;;;;5057061;28;20347;-74
2022/06/21 06:53:50;;;;;;;17.40;3.28;;;;;;;;;;5057037;28;20029;-74
2022/06/21 06:56:18;;;;;;;22.05;3.25;;;;;;;;;;5056526;28;20112;-73
2022/06/21 06:58:49;;;;;;;20.58;4.30;;;;;;;;;;5056864;28;20382;-74
2022/06/21 07:01:23;;;;;;;20.00;4.38;;;;;;;;;;5056746;28;20674;-73
2022/06/21 07:03:51;;;;;;;24.67;3.20;;;;;;;;;;5054664;28;20032;-74
2022/06/21 07:06:36;;;;;;;17.73;2.80;;;;;;;;;;5053353;28;20033;-74
2022/06/21 07:09:08;;;;;;;23.05;4.05;;;;;;;;;;5061816;28;20031;-74
2022/06/21 07:11:43;;;;;;;27.30;3.70;;;;;;;;;;5057344;28;20029;-74
2022/06/21 07:14:18;;;;;;;27.27;3.95;;;;;;;;;;5052961;28;20112;-73
2022/06/21 07:16:45;;;;;;;26.00;3.75;;;;;;;;;;5053446;28;20392;-74
2022/06/21 07:19:12;;;;;;;20.70;3.38;;;;;;;;;;5056548;28;20025;-75
2022/06/21 07:21:38;;;;;;;20.65;3.13;;;;;;;;;;5054755;28;20067;-74
2022/06/21 07:24:09;;;;;;;20.33;3.15;;;;;;;;;;5052644;28;20398;-73
2022/06/21 07:26:39;;;;;;;22.90;3.17;;;;;;;;;;5052895;28;20052;-74
2022/06/21 07:29:10;;;;;;;21.17;3.03;;;;;;;;;;5055509;28;20028;-73
2022/06/21 07:31:56;;;;;;;19.05;3.30;;;;;;;;;;5065824;28;20017;-74
2022/06/21 07:34:42;;;;;;;22.85;3.35;;;;;;;;;;5051005;28;20025;-73
2022/06/21 07:37:11;;;;;;;28.17;3.53;;;;;;;;;;5053057;28;20086;-73
2022/06/21 07:39:43;;;;;;;31.63;6.60;;;;;;;;;;5052500;28;20467;-73
2022/06/21 07:42:21;;;;;;;16.48;3.30;;;;;;;;;;5052871;28;20056;-73
2022/06/21 07:45:01;;;;;;;16.60;2.95;;;;;;;;;;5053131;28;20013;-73
2022/06/21 07:47:42;;;;;;;24.33;4.10;;;;;;;;;;5053622;28;20048;-75
2022/06/21 07:50:10;;;;;;;22.52;3.72;;;;;;;;;;5052577;28;20087;-75
2022/06/21 07:52:39;;;;;;;15.93;3.22;;;;;;;;;;5052561;28;20071;-73
2022/06/21 07:55:16;;;;;;;25.98;5.20;;;;;;;;;;5053985;28;20113;-76
2022/06/21 07:57:46;;;;;;;23.35;4.20;;;;;;;;;;5057774;28;20466;-73
2022/06/21 08:00:12;;;;;;;18.35;3.10;;;;;;;;;;5058543;28;20028;-74
2022/06/21 08:08:34;;;;;;;20.45;3.35;;;;;;;;;;5058502;28;20066;-74
2022/06/21 08:11:02;;;;;;;17.30;3.25;;;;;;;;;;5060017;28;20029;-74
2022/06/21 08:13:28;;;;;;;19.77;2.92;;;;;;;;;;5068617;28;20028;-74
2022/06/21 08:16:07;;;;;;;17.20;2.90;;;;;;;;;;5076469;28;20039;-75
2022/06/21 08:18:36;;;;;;;11.35;2.17;;;;;;;;;;5077215;28;20037;-74
2022/06/21 08:21:05;;;;;;;15.02;3.15;;;;;;;;;;5076240;28;20029;-73
2022/06/21 08:23:40;;;;;;;14.38;2.97;;;;;;;;;;5077084;28;20113;-73
2022/06/21 08:26:10;;;;;;;12.93;2.65;;;;;;;;;;5071523;28;20080;-72
2022/06/21 08:28:46;;;;;;;17.48;2.70;;;;;;;;;;5056838;28;20480;-73
2022/06/21 08:31:20;;;;;;;13.35;2.20;;;;;;;;;;5054865;28;20095;-73
2022/06/21 08:34:04;;;;;;;15.77;2.43;;;;;;;;;;5055149;28;20036;-75
2022/06/21 08:36:37;;;;;;;14.65;3.33;;;;;;;;;;5055182;28;20029;-74
2022/06/21 08:39:16;;;;;;;15.13;2.50;;;;;;;;;;5054799;28;20041;-74
2022/06/21 08:42:01;;;;;;;15.75;2.28;;;;;;;;;;5054552;28;20083;-73
2022/06/21 08:44:39;;;;;;;11.00;2.47;;;;;;;;;;5054752;28;20047;-73
2022/06/21 08:47:11;;;;;;;15.13;2.28;;;;;;;;;;5054836;28;20465;-74
2022/06/21 08:49:49;;;;;;;12.07;2.38;;;;;;;;;;5054818;28;20489;-73
2022/06/21 08:52:33;;;;;;;12.18;2.38;;;;;;;;;;5054341;28;20033;-73
2022/06/21 08:55:09;;;;;;;14.48;3.05;;;;;;;;;;5055906;28;20466;-73
2022/06/21 08:57:57;;;;;;;13.57;2.40;;;;;;;;;;5055735;28;20032;-74
2022/06/21 09:00:33;;;;;;;10.55;2.38;;;;;;;;;;5055180;28;20099;-75
2022/06/21 09:03:11;;;;;;;15.93;2.80;;;;;;;;;;5055400;28;20021;-75
2022/06/21 09:05:37;;;;;;;18.25;2.70;;;;;;;;;;5059112;28;20049;-74
2022/06/21 09:08:15;;;;;;;15.35;3.53;;;;;;;;;;5061933;28;20075;-75
2022/06/21 09:10:44;;;;;;;19.77;3.22;;;;;;;;;;5061524;28;20033;-73
2022/06/21 09:13:10;;;;;;;15.35;2.92;;;;;;;;;;5054094;28;20025;-74
2022/06/21 09:15:43;;;;;;;15.85;2.75;;;;;;;;;;5053481;28;20493;-74
2022/06/21 09:18:29;;;;;;;10.43;2.53;;;;;;;;;;5054370;28;20029;-74
2022/06/21 09:20:58;;;;;;;10.73;2.45;;;;;;;;;;5053911;28;20490;-72
2022/06/21 09:23:35;;;;;;;10.40;2.25;;;;;;;;;;5054346;28;20033;-74
2022/06/21 09:26:07;;;;;;;9.25;1.88;;;;;;;;;;5061737;28;20021;-73
2022/06/21 09:28:51;;;;;;;15.60;3.35;;;;;;;;;;5060835;28;20113;-74
2022/06/21 09:31:38;;;;;;;11.13;1.90;;;;;;;;;;5057474;28;20440;-74
2022/06/21 09:34:17;;;;;;;13.13;1.92;;;;;;;;;;5057971;28;20025;-74
2022/06/21 09:36:43;;;;;;;15.45;2.33;;;;;;;;;;5054557;28;20086;-74
2022/06/21 09:39:32;;;;;;;8.95;2.00;;;;;;;;;;5057530;28;20033;-74
2022/06/21 09:42:21;;;;;;;12.32;1.95;;;;;;;;;;5052455;28;20029;-74
2022/06/21 09:44:52;;;;;;;9.48;2.20;;;;;;;;;;5053863;28;20075;-74
2022/06/21 09:47:27;;;;;;;7.53;2.33;;;;;;;;;;5053747;28;20477;-73
2022/06/21 09:49:56;;;;;;;11.52;2.33;;;;;;;;;;5054509;28;20047;-74
2022/06/21 09:52:22;;;;;;;12.50;3.30;;;;;;;;;;5053762;28;20029;-74
2022/06/21 09:55:07;;;;;;;9.90;1.90;;;;;;;;;;5056008;28;20055;-74
2022/06/21 09:57:36;;;;;;;9.02;2.13;;;;;;;;;;5055444;28;20025;-74
2022/06/21 10:00:06;;;;;;;8.85;1.83;;;;;;;;;;5055947;28;20056;-73
2022/06/21 10:02:50;;;;;;;9.38;2.10;;;;;;;;;;5053892;28;20059;-75
2022/06/21 10:05:35;;;;;;;11.80;2.23;;;;;;;;;;5053424;28;20020;-74
2022/06/21 10:08:10;;;;;;;12.05;2.25;;;;;;;;;;5054055;28;20712;-76
2022/06/21 10:10:59;;;;;;;8.15;2.22;;;;;;;;;;5056442;28;20432;-74
2022/06/21 10:13:28;;;;;;;13.05;2.67;;;;;;;;;;5056355;28;20029;-74
2022/06/21 10:16:03;;;;;;;14.23;2.83;;;;;;;;;;5053160;28;20040;-75
2022/06/21 10:18:49;;;;;;;11.52;2.20;;;;;;;;;;5054578;28;20028;-73
2022/06/21 10:21:15;;;;;;;14.40;3.53;;;;;;;;;;5056933;28;20363;-74
2022/06/21 10:23:43;;;;;;;10.20;2.35;;;;;;;;;;5054534;28;20040;-76
2022/06/21 10:26:17;;;;;;;11.43;2.67;;;;;;;;;;5057683;28;20029;-74
2022/06/21 10:28:49;;;;;;;12.90;3.05;;;;;;;;;;5054872;28;20115;-76
2022/06/21 10:31:24;;;;;;;12.95;2.47;;;;;;;;;;5053193;28;20031;-77
2022/06/21 10:34:01;;;;;;;10.43;2.50;;;;;;;;;;5057065;28;20035;-76
2022/06/21 10:36:45;;;;;;;11.82;1.90;;;;;;;;;;5053215;28;20418;-75
2022/06/21 10:39:11;;;;;;;9.38;2.00;;;;;;;;;;5056407;28;20100;-75
2022/06/21 10:45:00;;;;;;;11.82;2.10;;;;;;;;;;5053431;28;20036;-75
2022/06/21 10:47:52;;;;;;;12.88;2.20;;;;;;;;;;5051673;28;20024;-74
2022/06/21 10:50:21;;;;;;;7.97;2.15;;;;;;;;;;5053345;28;20036;-74
2022/06/21 10:52:57;;;;;;;10.88;2.53;;;;;;;;;;5061923;28;20025;-74
2022/06/21 10:55:23;;;;;;;10.10;2.10;;;;;;;;;;5065274;28;20477;-74
2022/06/21 10:57:52;;;;;;;7.28;2.20;;;;;;;;;;5063775;28;20105;-75
2022/06/21 11:03:22;;;;;;;9.35;2.10;;;;;;;;;;5055817;28;20044;-75
2022/06/21 11:05:57;;;;;;;17.80;3.30;;;;;;;;;;5055820;28;20017;-74
2022/06/21 11:08:41;;;;;;;11.23;2.25;;;;;;;;;;5053409;28;20025;-74
2022/06/21 11:11:21;;;;;;;13.18;2.80;;;;;;;;;;5059078;28;20024;-75
2022/06/21 11:13:52;;;;;;;13.10;2.75;;;;;;;;;;5053371;28;20104;-75
2022/06/21 11:16:27;;;;;;;16.83;3.22;;;;;;;;;;5056174;28;20013;-74
2022/06/21 11:19:00;;;;;;;9.90;3.10;;;;;;;;;;5052123;28;20032;-73
2022/06/21 11:21:32;;;;;;;14.05;3.33;;;;;;;;;;5048387;28;20025;-74
2022/06/21 11:24:13;;;;;;;13.57;2.38;;;;;;;;;;5056201;28;20183;-74
2022/06/21 11:26:42;;;;;;;10.98;2.53;;;;;;;;;;5050180;28;20478;-75
2022/06/21 11:29:07;;;;;;;9.90;2.20;;;;;;;;;;5050329;28;20055;-74
2022/06/21 11:31:41;;;;;;;9.80;2.50;;;;;;;;;;5051066;28;20047;-74
2022/06/21 11:34:22;;;;;;;10.23;1.90;;;;;;;;;;5051167;28;20025;-73
2022/06/21 11:37:07;;;;;;;12.82;2.17;;;;;;;;;;5053333;28;20028;-73
2022/06/21 11:39:40;;;;;;;6.07;2.03;;;;;;;;;;5054093;28;20087;-74
2022/06/21 11:42:06;;;;;;;8.45;1.92;;;;;;;;;;5054464;28;20017;-74
2022/06/21 11:44:32;;;;;;;9.02;1.80;;;;;;;;;;5054466;28;20542;-75
2022/06/21 11:47:04;;;;;;;5.25;1.33;;;;;;;;;;5052877;28;20033;-73
2022/06/21 11:49:35;;;;;;;14.25;2.30;;;;;;;;;;5054998;28;20025;-74
2022/06/21 11:52:10;;;;;;;6.70;1.65;;;;;;;;;;5054173;28;20025;-74
2022/06/21 11:54:39;;;;;;;11.48;2.20;;;;;;;;;;5054838;28;20029;-73
2022/06/21 11:57:05;;;;;;;8.07;2.40;;;;;;;;;;5054807;28;20109;-73
2022/06/21 11:59:50;;;;;;;12.75;4.10;;;;;;;;;;5053348;28;20104;-78
2022/06/21 12:02:22;;;;;;;11.10;2.20;;;;;;;;;;5054820;28;20484;-75
2022/06/21 12:05:00;;;;;;;10.13;2.10;;;;;;;;;;5053090;28;20061;-74
2022/06/21 12:07:35;;;;;;;11.52;1.80;;;;;;;;;;5053713;28;20104;-75
2022/06/21 12:10:21;;;;;;;13.30;2.42;;;;;;;;;;5054760;28;20057;-80
2022/06/21 12:12:51;;;;;;;13.45;2.85;;;;;;;;;;5055725;28;20048;-77
2022/06/21 12:15:26;;;;;;;11.82;3.38;;;;;;;;;;5056537;28;20375;-76
2022/06/21 12:17:54;;;;;;;9.65;2.47;;;;;;;;;;5055104;28;20025;-74
2022/06/21 12:20:24;;;;;;;9.25;2.40;;;;;;;;;;5057579;28;20013;-75
2022/06/21 12:22:59;;;;;;;9.13;2.55;;;;;;;;;;5061184;28;20481;-74
2022/06/21 12:25:25;;;;;;;11.55;2.55;;;;;;;;;;5062792;28;20031;-74
2022/06/21 12:27:53;;;;;;;8.65;1.95;;;;;;;;;;5064090;28;20028;-75
2022/06/21 12:30:22;;;;;;;8.88;2.70;;;;;;;;;;5057377;28;20074;-73
2022/06/21 12:32:49;;;;;;;10.02;2.25;;;;;;;;;;5055690;28;20017;-74
2022/06/21 12:35:16;;;;;;;8.70;1.80;;;;;;;;;;5055509;28;20031;-76
2022/06/21 12:37:42;;;;;;;11.57;2.30;;;;;;;;;;5053873;28;20108;-75
2022/06/21 12:40:18;;;;;;;10.70;2.10;;;;;;;;;;5056864;28;20458;-75
2022/06/21 12:42:54;;;;;;;12.35;2.10;;;;;;;;;;5064834;28;20176;-75
2022/06/21 12:45:21;;;;;;;11.70;2.10;;;;;;;;;;5054737;28;20025;-75
2022/06/21 12:48:04;;;;;;;11.80;2.47;;;;;;;;;;5062008;28;20032;-76
2022/06/21 12:50:38;;;;;;;11.20;2.45;;;;;;;;;;5066375;28;20025;-75
2022/06/21 12:53:11;;;;;;;8.73;2.35;;;;;;;;;;5066665;28;20025;-74
2022/06/21 12:55:43;;;;;;;11.55;2.42;;;;;;;;;;5067356;28;20036;-75
2022/06/21 12:58:16;;;;;;;8.43;2.05;;;;;;;;;;5067522;28;20079;-76
2022/06/21 13:00:52;;;;;;;10.25;2.00;;;;;;;;;;5063324;28;20470;-74
2022/06/21 13:03:34;;;;;;;8.13;1.88;;;;;;;;;;5055784;28;20025;-74
2022/06/21 13:06:03;;;;;;;8.10;2.40;;;;;;;;;;5054469;28;20565;-75
2022/06/21 13:09:05;;;;;;;5.35;1.70;;;;;;;;;;5056531;28;20048;-75
2022/06/21 13:11:42;;;;;;;13.73;2.38;;;;;;;;;;4997989;28;20109;-74
2022/06/21 13:14:11;;;;;;;12.85;2.47;;;;;;;;;;5049419;28;20045;-74
2022/06/21 13:16:40;;;;;;;9.27;2.83;;;;;;;;;;5055072;28;20033;-73
2022/06/21 13:19:25;;;;;;;13.18;2.55;;;;;;;;;;5053359;28;20394;-74
2022/06/21 13:22:03;;;;;;;8.95;2.10;;;;;;;;;;5055126;28;20127;-73
2022/06/21 13:24:29;;;;;;;7.78;1.80;;;;;;;;;;5050773;28;20048;-74
2022/06/21 13:27:07;;;;;;;11.57;2.33;;;;;;;;;;5052374;28;20025;-75
2022/06/21 13:29:39;;;;;;;9.43;1.95;;;;;;;;;;5053766;28;20040;-76
2022/06/21 13:32:08;;;;;;;7.85;1.90;;;;;;;;;;5053384;28;20033;-76
2022/06/21 13:34:52;;;;;;;10.93;1.98;;;;;;;;;;5051935;28;20025;-80
2022/06/21 13:37:22;;;;;;;7.65;1.67;;;;;;;;;;5052719;28;20540;-75
2022/06/21 13:40:04;;;;;;;9.85;2.03;;;;;;;;;;5052176;28;20448;-75
2022/06/21 13:42:46;;;;;;;9.82;1.80;;;;;;;;;;5053862;28;20025;-73
2022/06/21 13:45:17;;;;;;;7.47;2.10;;;;;;;;;;5055325;28;20029;-77
2022/06/21 13:48:03;;;;;;;11.13;2.08;;;;;;;;;;5060337;28;20077;-77
2022/06/21 13:50:47;;;;;;;12.38;2.10;;;;;;;;;;5075060;28;20502;-76
2022/06/21 13:53:19;;;;;;;11.40;2.30;;;;;;;;;;5073482;28;20020;-77
2022/06/21 13:55:45;;;;;;;7.90;1.60;;;;;;;;;;5073012;28;20054;-73
2022/06/21 13:58:16;;;;;;;15.85;2.50;;;;;;;;;;5072733;28;20032;-76
2022/06/21 14:00:51;;;;;;;14.43;3.95;;;;;;;;;;5073688;28;20024;-76
2022/06/21 14:03:25;;;;;;;9.52;2.40;;;;;;;;;;5072656;28;20465;-76
2022/06/21 14:06:18;;;;;;;8.77;2.10;;;;;;;;;;5059946;28;20100;-75
2022/06/21 14:08:57;;;;;;;12.20;1.92;;;;;;;;;;5029996;28;20110;-76
2022/06/21 14:11:30;;;;;;;11.50;3.88;;;;;;;;;;5053786;28;20391;-76
2022/06/21 14:14:01;;;;;;;13.93;3.40;;;;;;;;;;5053854;28;20021;-76
2022/06/21 14:16:48;;;;;;;14.73;3.00;;;;;;;;;;5051157;28;20121;-76
2022/06/21 14:19:31;;;;;;;9.75;2.53;;;;;;;;;;5051875;28;20074;-75
2022/06/21 14:22:01;;;;;;;7.32;2.40;;;;;;;;;;5053845;28;20029;-76
2022/06/21 14:24:28;;;;;;;9.73;2.25;;;;;;;;;;5050881;28;20528;-74
2022/06/21 14:26:56;;;;;;;9.45;2.03;;;;;;;;;;5056829;28;20100;-75
2022/06/21 14:29:28;;;;;;;9.48;1.85;;;;;;;;;;5060252;28;20028;-76
2022/06/21 14:32:33;;;;;;;9.85;2.28;;;;;;;;;;5060638;28;20084;-76
2022/06/21 14:35:17;;;;;;;6.72;2.15;;;;;;;;;;4998239;28;20096;-76
2022/06/21 14:38:02;;;;;;;9.13;2.25;;;;;;;;;;4991203;28;20100;-75
2022/06/21 14:40:30;;;;;;;11.13;2.30;;;;;;;;;;5035233;28;20049;-76
2022/06/21 14:42:59;;;;;;;6.50;1.85;;;;;;;;;;5051007;28;20138;-75
2022/06/21 14:45:38;;;;;;;14.02;2.10;;;;;;;;;;5052212;28;20039;-75
2022/06/21 14:48:14;;;;;;;9.10;2.55;;;;;;;;;;5052292;28;20474;-76
2022/06/21 14:50:47;;;;;;;10.57;2.60;;;;;;;;;;5052351;28;20025;-76
2022/06/21 14:53:31;;;;;;;10.75;2.08;;;;;;;;;;5051838;28;20028;-75
2022/06/21 14:56:00;;;;;;;8.95;2.33;;;;;;;;;;5052663;28;20051;-75
2022/06/21 14:58:46;;;;;;;8.38;2.30;;;;;;;;;;5051824;28;20112;-75
2022/06/21 15:01:33;;;;;;;8.25;2.20;;;;;;;;;;5052673;28;20505;-76
2022/06/21 15:04:18;;;;;;;10.35;1.55;;;;;;;;;;5051953;28;20043;-76
2022/06/21 15:06:58;;;;;;;5.63;1.80;;;;;;;;;;5051689;28;20021;-76
2022/06/21 15:09:31;;;;;;;11.27;2.35;;;;;;;;;;5054534;28;20035;-79
2022/06/21 15:12:00;;;;;;;9.05;2.53;;;;;;;;;;5058242;28;20031;-78
2022/06/21 15:14:44;;;;;;;11.63;2.92;;;;;;;;;;5057311;28;20025;-76
2022/06/21 15:17:11;;;;;;;6.10;2.22;;;;;;;;;;5057161;28;20083;-77
2022/06/21 15:19:56;;;;;;;8.20;3.10;;;;;;;;;;5056544;28;20035;-75
2022/06/21 15:22:54;;;;;;;8.77;2.35;;;;;;;;;;5055546;28;20100;-75